Central Sierra Snow Lab Weather observations

Data are for 10 minute period ending at time listed.
 Day   Time    Incoming  Reflected   Ave.   Ave.    Ave.    Vector  Max.    Ave.    Total    Snow   
  of    of      Solar     Solar      Air    Rel.    Wind    Wind    Wind   Baro.   Precip.   Depth  
Year   Day     Radiation Radiation   Temp.  Humid.  Speed   Dir.    Gust   Press.                   
2019   (PST)    Kw/m2     Kw/m2       F       %      mph     deg.    mph     mb.     in.      in.   
----------------------------------------------------------------------------------------------------
 234    9:20    0.650     999.000     65.6     49     2.5     174     4.8   791.70   -2.96   -4.90  
 234    9:30    0.674     999.000     66.1     47     1.5     188     4.0   791.60   -2.96   -5.10  
 234    9:40    0.697     999.000     67.1     46     1.2     232     3.0   791.50   -2.96   -4.90  
 234    9:50    0.722     999.000     68.6     46     1.3     216     6.1   791.50   -2.96   -5.40  
 234   10:00    0.743     999.000     68.5     43     2.1     280     7.8   791.50   -2.96   -5.10  
 234   10:10    0.760     999.000     68.2     42     2.6     130     5.5   791.50   -2.96   -5.20  
 234   10:20    0.794     999.000     68.1     42     2.4     320     6.0   791.50   -2.96   -5.10  
 234   10:30    0.768     999.000     69.0     39     2.6     329     8.7   791.50   -2.96   -5.20  
 234   10:40    0.799     999.000     69.4     41     2.3     204     4.0   791.50   -2.96   -4.90  
 234   10:50    0.831     999.000     70.8     39     2.5     292     7.2   791.50   -2.96   -5.00  
 234   11:00    0.899     999.000     71.9     37     2.1     284     5.8   791.50   -2.96   -4.80  
 234   11:10    0.948     999.000     72.3     37     3.4     240     8.9   791.50   -2.96   -5.20  
 234   11:20    0.681     999.000     71.2     36     2.8     273     8.4   791.50   -2.96   -4.90  
 234   11:30    0.750     999.000     70.9     38     3.5     268    10.4   791.50   -2.96   -4.70  
 234   11:40    0.941     999.000     70.4     39     3.5     281     7.8   791.40   -2.96   -4.70  
 234   11:50    0.533     999.000     70.6     40     2.7     213    10.5   791.40   -2.96   -4.70  
 234   12:00    0.804     999.000     70.8     40     3.7     208     9.2   791.40   -2.96   -1.70  
 234   12:10    0.347     999.000     70.2     41     2.5     277     8.4   791.40   -2.96   -4.60  
 234   12:20    0.794     999.000     70.6     40     2.4     207     5.8   791.40   -2.96   -5.00  
 234   12:30    0.769     999.000     72.3     38     2.6     244     6.3   791.30   -2.96   -4.90  
 234   12:40    0.470     999.000     70.9     39     2.7     243     8.8   791.30   -2.96   -4.60  
 234   12:50    0.766     999.000     71.5     40     2.9     204     5.7   791.20   -2.96   -4.80  
 234   13:00    0.876     999.000     72.3     38     2.2     238     7.2   791.20   -2.96   -4.90  
 234   13:10    0.872     999.000     72.9     37     2.8     226     7.0   791.10   -2.96   -5.10  
 234   13:20    0.840     999.000     72.9     38     3.6     245     8.6   791.00   -2.96   -5.10  
 234   13:30    0.799     999.000     72.6     38     3.1     261     7.5   790.90   -2.96   -4.90  
 234   13:40    0.718     999.000     72.4     39     3.4     245     8.1   790.90   -2.96   -5.10  
 234   13:50    0.808     999.000     73.5     38     3.2     217     6.9   790.80   -2.96   -5.10  
 234   14:00    0.823     999.000     74.1     37     2.3     231     7.2   790.70   -2.96   -5.00  
 234   14:10    0.793     999.000     74.7     36     2.7     200     6.7   790.70   -2.96   -4.90  
 234   14:20    0.762     999.000     73.7     38     3.1     220    11.1   790.60   -2.96   -4.70  
 234   14:30    0.744     999.000     73.3     38     3.0     243     7.0   790.50   -2.96   -5.00  
 234   14:40    0.707     999.000     72.8     38     3.4     231     8.8   790.50   -2.96   -4.60  
 234   14:50    0.619     999.000     73.6     38     3.2     256     7.0   790.40   -2.96    1.10  
 234   15:00    0.583     999.000     73.5     38     2.8     238     6.3   790.50   -2.96   41.30  
 234   15:10    0.582     999.000     73.0     39     3.8     275     8.4   790.40   -2.96   153.10  
 234   15:20    0.612     999.000     73.3     40     3.0     263     7.0   790.40   -2.96   163.90  
 234   15:30    0.593     999.000     73.3     40     3.2     234     7.8   790.40   -2.96   164.00  
 234   15:40    0.553     999.000     72.9     41     3.0     267     7.2   790.40   -2.96   164.00  
 234   15:50    0.520     999.000     73.6     40     2.9     234     6.7   790.40   -2.96   139.10  
 234   16:00    0.493     999.000     73.6     40     2.5     281     5.4   790.40   -2.96    5.80  
 234   16:10    0.444     999.000     73.6     40     2.6     248     6.5   790.40   -2.96   151.30  
 234   16:20    0.429     999.000     73.1     41     2.9     260     8.3   790.40   -2.96   130.00  
 234   16:30    0.352     999.000     72.2     43     4.2     282     7.7   790.40   -2.96   163.90  
 234   16:40    0.320     999.000     71.6     45     2.7     247     7.8   790.50   -2.96   164.00  
 234   16:50    0.296     999.000     71.1     46     2.9     243     6.5   790.50   -2.96   164.20  
 234   17:00    0.165     999.000     71.2     47     2.8     268     8.6   790.60   -2.96   164.20  
 234   17:10    0.101     999.000     70.5     48     2.0     205     6.6   790.60   -2.96   164.20  
 234   17:20    0.119     999.000     71.3     48     2.1     225     6.5   790.60   -2.96   164.20  
 234   17:30    0.105     999.000     70.5     49     2.5     247     7.6   790.60   -2.96   164.10  
 234   17:40    0.086     999.000     69.5     52     2.5     211     5.9   790.60   -2.96   164.10  
 234   17:50    0.056     999.000     69.0     52     1.7     200     4.2   790.70   -2.96   164.00  
 234   18:00    0.043     999.000     69.0     53     2.0     253     6.0   790.80   -2.96   127.00  
 234   18:10    0.025     999.000     67.4     56     2.0     225     5.4   790.90   -2.96   164.10  
 234   18:20    0.021     999.000     66.2     58     1.1     219     2.7   790.90   -2.96   164.00  
 234   18:30    0.018     999.000     65.7     61     0.7     237     3.2   790.90   -2.96   164.10  
 234   18:40    0.012     999.000     65.2     61     1.3     237     4.0   791.00   -2.96   101.10  
 234   18:50    0.006     999.000     64.5     63     0.7      26     2.5   791.10   -2.96   164.30  
 234   19:00    0.003     999.000     63.8     64     0.4      56     1.4   791.10   -2.96   164.20  
 234   19:10    0.001     999.000     62.6     67     1.3      30     2.3   791.10   -2.96   162.70  
 234   19:20    0.000     999.000     61.6     70     1.9      26     2.6   791.10   -2.96   12.00  
 234   19:30    0.000     999.000     60.8     72     1.9      26     2.6   791.20   -2.96   111.50  
 234   19:40    0.000     999.000     60.2     73     2.4      27     2.9   791.20   -2.96   164.10  
 234   19:50    0.000     999.000     59.6     74     1.3      34     2.6   791.30   -2.96   164.20  
 234   20:00    0.000     999.000     59.5     74     1.4      19     3.3   791.30   -2.96   164.40  
 234   20:10    0.000     999.000     58.7     75     2.3      29     3.3   791.30   -2.96   164.60  
 234   20:20    0.000     999.000     58.2     76     2.0      31     2.8   791.40   -2.96   164.60  
 234   20:30    0.000     999.000     57.7     77     2.4      29     3.5   791.40   -2.96   164.40  
 234   20:40    0.000     999.000     57.2     77     1.6      37     3.2   791.40   -2.96   148.80  
 234   20:50    0.000     999.000     56.8     78     1.0      52     1.8   791.50   -2.96   162.80  
 234   21:00    0.000     999.000     56.4     78     1.1      42     1.8   791.50   -2.96   162.80  
 234   21:10    0.000     999.000     56.1     78     1.1      22     2.6   791.40   -2.96   164.40  
 234   21:20    0.000     999.000     55.7     78     0.4      24     1.6   791.40   -2.96   162.80  
 234   21:30    0.000     999.000     55.4     79     0.7      26     2.3   791.50   -2.96   134.90  
 234   21:40    0.000     999.000     55.1     79     1.4      31     2.3   791.50   -2.96   -5.90  
 234   21:50    0.000     999.000     54.9     78     1.8      33     3.2   791.60   -2.96   -5.80  
 234   22:00    0.000     999.000     55.0     75     2.5      31     4.0   791.50   -2.96   12.70  
 234   22:10    0.000     999.000     55.1     71     2.1      36     3.4   791.50   -2.96   164.60  
 234   22:20    0.000     999.000     55.3     68     1.5      37     2.9   791.50   -2.96   164.50  
 234   22:30    0.000     999.000     55.7     66     1.2      59     2.4   791.60   -2.96   164.60  
 234   22:40    0.000     999.000     55.7     64     1.2      43     3.0   791.60   -2.96   164.60  
 234   22:50    0.000     999.000     55.7     60     1.6      42     3.3   791.60   -2.96   164.60  
 234   23:00    0.000     999.000     55.8     59     1.3      40     2.4   791.60   -2.96   164.60  
 234   23:10    0.000     999.000     55.8     59     1.3      42     2.4   791.60   -2.96   164.70  
 234   23:20    0.000     999.000     55.9     58     1.4      53     2.2   791.60   -2.96   164.60  
 234   23:30    0.000     999.000     55.7     57     1.5      50     3.1   791.60   -2.96   164.70  
 234   23:40    0.000     999.000     55.4     57     1.6      44     3.1   791.70   -2.96   164.70  
 234   23:50    0.000     999.000     55.0     55     1.5      50     2.7   791.70   -2.96   164.70  
 235    0:00    0.000     999.000     54.7     53     2.3      38     4.0   791.60   -2.96   164.70  
 235    0:10    0.000     999.000     54.4     54     1.9      42     3.6   791.60   -2.96   164.70  
 235    0:20    0.000     999.000     54.2     53     1.8      45     4.0   791.60   -2.96   164.70  
 235    0:30    0.000     999.000     54.3     51     2.1      39     3.3   791.50   -2.96   164.70  
 235    0:40    0.000     999.000     54.2     51     2.2      39     3.9   791.50   -2.96   164.70  
 235    0:50    0.000     999.000     53.9     51     2.0      46     4.4   791.50   -2.96   164.70  
 235    1:00    0.000     999.000     53.8     50     1.7      49     2.7   791.40   -2.96   164.80  
 235    1:10    0.000     999.000     53.5     51     2.3      41     4.4   791.40   -2.96   164.80  
 235    1:20    0.000     999.000     53.2     53     2.5      38     4.8   791.30   -2.96   164.70  
 235    1:30    0.000     999.000     52.7     54     2.5      39     4.7   791.30   -2.96   164.70  
 235    1:40    0.000     999.000     52.5     53     2.1      39     4.3   791.30   -2.96   164.70  
 235    1:50    0.000     999.000     52.2     54     2.9      38     5.3   791.30   -2.96   164.70  
 235    2:00    0.000     999.000     52.0     54     3.1      37     5.4   791.30   -2.96   164.80  
 235    2:10    0.000     999.000     52.0     54     3.7      35     5.9   791.20   -2.96   164.80  
 235    2:20    0.000     999.000     52.1     54     3.7      35     5.8   791.20   -2.96   164.80  
 235    2:30    0.000     999.000     52.0     54     2.9      40     6.1   791.20   -2.96   164.80  
 235    2:40    0.000     999.000     51.9     54     2.8      40     5.9   791.10   -2.96   164.80  
 235    2:50    0.000     999.000     51.9     55     3.2      36     5.7   791.20   -2.96   164.70  
 235    3:00    0.000     999.000     51.8     55     3.9      34     5.7   791.20   -2.96   164.80  
 235    3:10    0.000     999.000     51.5     56     3.0      37     5.3   791.20   -2.96   164.70  
 235    3:20    0.000     999.000     51.4     56     2.8      38     4.6   791.20   -2.96   164.80  
 235    3:30    0.000     999.000     51.6     55     3.5      33     5.6   791.20   -2.96   164.80  
 235    3:40    0.000     999.000     51.7     54     4.4      31     5.7   791.20   -2.96   164.80  
 235    3:50    0.000     999.000     51.5     55     3.6      35     5.8   791.20   -2.96   164.80  
 235    4:00    0.000     999.000     51.5     56     3.2      36     5.7   791.20   -2.96   164.80  
 235    4:10    0.000     999.000     51.4     56     3.0      38     5.8   791.10   -2.96   164.80  
 235    4:20    0.000     999.000     51.4     56     3.6      33     5.9   791.20   -2.96   164.80  
 235    4:30    0.000     999.000     51.6     55     3.8      33     5.7   791.20   -2.96   164.80  
 235    4:40    0.000     999.000     51.5     56     3.7      33     5.6   791.20   -2.96   164.80  
 235    4:50    0.000     999.000     51.3     57     3.6      31     5.2   791.20   -2.96   164.80  
 235    5:00    0.000     999.000     51.4     56     3.1      34     6.1   791.30   -2.96   164.80  
 235    5:10    0.000     999.000     51.4     56     2.9      36     5.0   791.50   -2.96   164.80  
 235    5:20    0.001     999.000     51.0     58     3.0      36     4.8   791.50   -2.96   164.80  
 235    5:30    0.002     999.000     50.7     58     3.4      31     4.8   791.50   -2.96   164.80  
 235    5:40    0.005     999.000     50.7     58     3.0      34     4.7   791.60   -2.96   164.80  
 235    5:50    0.007     999.000     50.5     59     2.3      40     4.1   791.70   -2.96   164.80  
 235    6:00    0.009     999.000     50.5     59     2.0      42     4.7   791.80   -2.96   164.80  
 235    6:10    0.012     999.000     50.6     58     2.1      38     4.3   791.90   -2.96   164.80  
 235    6:20    0.015     999.000     50.8     59     2.2      38     4.5   792.00   -2.96   164.80  
 235    6:30    0.018     999.000     51.1     59     2.0      49     4.4   792.00   -2.96   164.80  
 235    6:40    0.021     999.000     51.3     61     2.8      46     4.6   792.10   -2.96   164.80  
 235    6:50    0.023     999.000     51.8     61     2.0      68     3.3   792.20   -2.96   164.80  
 235    7:00    0.037     999.000     52.9     59     2.2      51     4.3   792.20   -2.96   164.70  
 235    7:10    0.233     999.000     54.0     58     2.0      57     4.6   792.30   -2.96   164.80  
 235    7:20    0.290     999.000     55.6     54     1.6      53     4.7   792.30   -2.96   164.70  
 235    7:30    0.306     999.000     57.8     50     1.8      36     5.5   792.40   -2.96   164.60  
 235    7:40    0.349     999.000     59.8     46     1.1      42     3.2   792.30   -2.96   164.60  
 235    7:50    0.388     999.000     61.1     43     1.0      51     3.8   792.40   -2.96   164.50  
 235    8:00    0.407     999.000     61.4     42     1.5      35     3.9   792.40   -2.96   164.20  
 235    8:10    0.436     999.000     62.2     40     1.1      50     4.0   792.40   -2.96   108.40  
 235    8:20    0.470     999.000     63.7     37     1.8      31     4.9   792.40   -2.96   -4.70  
 235    8:30    0.492     999.000     64.6     38     1.7      28     4.7   792.50   -2.96   -4.80  
 235    8:40    0.542     999.000     65.9     35     2.0      22     5.1   792.40   -2.96   82.50  
 235    8:50    0.570     999.000     66.4     33     2.4      17     7.4   792.50   -2.96   81.10  
 235    9:00    0.615     999.000     67.1     33     2.7      14     5.9   792.50   -2.96   114.70  
 235    9:10    0.641     999.000     68.1     33     1.9      25     4.4   792.50   -2.96   -4.70  

Return to Central Sierra Snow Lab graphs page.


Western Regional Climate Center,wrcc@dri.edu